Airfield :
LOGIN :

Register | Disclaimer

   EN    FR    IT 

 










Legend :    VFR   Marginal VFR   IFR   Intensive IFR   Very Intensive IFR
Visi :
Ceiling :
>= 8 km
>= 3000ft
5 to 8 km
1000 to 3000 ft
1500m to 5 km
500 to 1000 ft
800 to 1500m
200 to 500 ft
< 800m
< 200 ft
Symbols :   Thunderstorms  Fog  Heavy snow  Heavy precipitations  Wind > 20 kt
SIGMETs :     Misc.  Thunderstorms  Icing  Turbulence  Mountain Waves  Volcanic Ashes






- Airport Elevation : 157 ft
- IATA code : LIL


LFQQ - Lille Lesquin

CURRENT METAR :
  • 012200Z AUTO 23004KT CAVOK 16/09 Q1022 NOSIG

EXPIRED METARs :
  • 011630Z AUTO 24008KT 210V270 CAVOK 21/09 Q1019 NOSIG
  • 012130Z AUTO 22004KT CAVOK 15/10 Q1021 NOSIG
  • 012100Z AUTO 22003KT 190V250 CAVOK 16/09 Q1021 NOSIG
  • 012030Z AUTO 27006KT CAVOK 16/09 Q1021 NOSIG
  • 012000Z AUTO 26006KT CAVOK 17/09 Q1021 NOSIG
  • 010530Z AUTO 20005KT 170V240 CAVOK 12/11 Q1017 NOSIG

TAF TAF LFQQ
Valid from the 01 at 18:00 until the 03 at 00:00 UTC


011700Z 0118/0224 25010KT CAVOK
BECMG 0119/0121 VRB03KT
BECMG 0209/0211 20010KT
BECMG 0216/0218 35010KT
BECMG 0221/0224 VRB03KT
ATIS : +33 3 20 16 19 54



MET'MAP, your aeronautical weather chart ! - Copyright ORBIFLY December 2007 - Disclaimer

ORBIFLY MET'MAP TEAM :

Programming & Development : Alexandra Zaïnal
Original concept : Baudouin d'Aumeries
Technical & hardware support : Manuel Goepfert
Assistance : Marc-Olivier Méhu




SOURCES & CREDITS :

   NOAA